New York, New York
Current Conditions -  °F | °C
As of 4:35 PM on Saturday 25 Oct 2014 (Local Time) from KJRB Reporting Station
Clear Clear  
Wind Chill: 22°   Ceiling: Unl
Heat Index: 22°   Visibility: 10mi
Dew Point:   Wind: 13mph
Humidity: 38%   Direction: 260°W
Pressure: 29.67"   Gusts: 22mph
Location:  40.71°N, 74.01°W
Report Text: KJRB 252035Z AUTO 26011G19KT 10SM CLR 22/07 A2967 RMK AO1
Loading
Personal Weather Stations






























Interactive Weather Map New forecast layout! Learn more

10-Day Weather Forecast

Advertisements
Track Severe Weather on mobile